createdAt,value
2017-09-29T00:00:47.492Z,0.00
2017-09-29T00:01:47.385Z,0.00
2017-09-29T00:03:40.222Z,0.00
2017-09-29T00:04:40.185Z,0.00
2017-09-29T00:06:33.061Z,0.00
2017-09-29T00:07:33.005Z,0.00
2017-09-29T00:09:25.842Z,0.00
2017-09-29T00:10:25.793Z,0.00
2017-09-29T00:12:18.669Z,0.00
2017-09-29T00:13:18.602Z,0.00
2017-09-29T00:15:11.394Z,0.00
2017-09-29T00:16:11.365Z,0.00
2017-09-29T00:18:04.267Z,0.00
2017-09-29T00:19:04.154Z,0.00
2017-09-29T00:20:56.983Z,0.00
2017-09-29T00:21:56.953Z,0.00
2017-09-29T00:23:49.827Z,0.00
2017-09-29T00:24:49.752Z,0.00
2017-09-29T00:26:42.595Z,0.00
2017-09-29T00:27:42.606Z,0.00
2017-09-29T00:29:35.423Z,0.00
2017-09-29T00:30:35.406Z,0.00
2017-09-29T00:32:28.174Z,0.00
2017-09-29T00:33:28.213Z,0.00
2017-09-29T00:35:21.109Z,0.00
2017-09-29T00:36:20.944Z,0.00
2017-09-29T00:38:13.778Z,0.00
2017-09-29T00:39:13.755Z,0.00
2017-09-29T00:41:06.694Z,0.00
2017-09-29T00:42:06.530Z,0.00
2017-09-29T00:43:59.368Z,0.00
2017-09-29T00:44:59.320Z,0.00
2017-09-29T00:46:52.245Z,0.00
2017-09-29T00:47:52.124Z,0.00
2017-09-29T00:49:44.974Z,0.00
2017-09-29T00:50:44.942Z,0.00
2017-09-29T00:52:37.838Z,0.00
2017-09-29T00:53:37.724Z,0.00
2017-09-29T00:55:30.594Z,0.00
2017-09-29T00:56:30.486Z,0.00
2017-09-29T00:58:23.732Z,0.00
2017-09-29T00:59:23.311Z,0.00
2017-09-29T01:01:17.115Z,0.00
2017-09-29T01:02:16.701Z,0.00
2017-09-29T01:04:09.651Z,0.00
2017-09-29T01:05:09.482Z,0.00
2017-09-29T01:07:02.286Z,0.00
2017-09-29T01:08:02.272Z,0.00
2017-09-29T01:09:55.283Z,0.00
2017-09-29T01:10:55.168Z,0.00
2017-09-29T01:12:48.051Z,0.00
2017-09-29T01:13:47.861Z,0.00
2017-09-29T01:15:40.774Z,0.00
2017-09-29T01:16:40.735Z,0.00
2017-09-29T01:18:33.603Z,0.00
2017-09-29T01:19:33.448Z,0.00
2017-09-29T01:21:26.334Z,0.00
2017-09-29T01:22:26.262Z,0.00
2017-09-29T01:24:19.085Z,0.00
2017-09-29T01:25:19.057Z,0.00
2017-09-29T01:27:11.953Z,0.00
2017-09-29T01:28:11.850Z,0.00
2017-09-29T01:30:04.658Z,0.00
2017-09-29T01:31:04.657Z,0.00
2017-09-29T01:32:57.768Z,0.00
2017-09-29T01:33:57.479Z,0.00
2017-09-29T01:35:50.515Z,0.00
2017-09-29T01:36:50.389Z,0.00
2017-09-29T01:38:43.286Z,0.00
2017-09-29T01:39:43.027Z,0.00
2017-09-29T01:41:35.849Z,0.00
2017-09-29T01:42:35.853Z,0.00
2017-09-29T01:44:29.182Z,0.00
2017-09-29T01:45:28.597Z,0.00
2017-09-29T01:46:28.630Z,0.00
2017-09-29T01:47:28.596Z,0.00
2017-09-29T01:48:28.505Z,0.00
2017-09-29T01:49:28.684Z,0.00
2017-09-29T01:50:28.442Z,0.00
2017-09-29T01:51:28.461Z,0.00
2017-09-29T01:52:28.428Z,0.00
2017-09-29T01:53:28.375Z,0.00
2017-09-29T01:54:28.373Z,0.00
2017-09-29T01:55:28.371Z,0.00
2017-09-29T01:56:28.280Z,0.00
2017-09-29T01:57:29.139Z,0.00
2017-09-29T01:58:28.244Z,0.00
2017-09-29T01:59:28.174Z,0.00
2017-09-29T02:00:28.222Z,0.00
2017-09-29T02:01:28.226Z,0.00
2017-09-29T02:02:28.651Z,0.00
2017-09-29T02:03:28.079Z,0.00
2017-09-29T02:04:28.021Z,0.00
2017-09-29T02:05:28.031Z,0.00
2017-09-29T02:06:27.950Z,0.00
2017-09-29T02:07:27.955Z,0.00
2017-09-29T02:08:27.902Z,0.00
2017-09-29T02:09:27.884Z,0.00
2017-09-29T02:10:27.881Z,0.00
2017-09-29T02:11:27.809Z,0.00
2017-09-29T02:12:27.776Z,0.00
2017-09-29T02:13:27.806Z,0.00
2017-09-29T02:14:27.726Z,0.00
2017-09-29T02:15:27.699Z,0.00
2017-09-29T02:16:27.706Z,0.00
2017-09-29T02:17:27.630Z,0.00
2017-09-29T02:18:28.156Z,0.00
2017-09-29T02:19:27.570Z,0.00
2017-09-29T02:20:27.547Z,0.00
2017-09-29T02:21:27.504Z,0.00
2017-09-29T02:22:27.462Z,0.00
2017-09-29T02:23:27.437Z,0.00
2017-09-29T02:24:27.413Z,0.00
2017-09-29T02:25:27.376Z,0.00
2017-09-29T02:26:27.340Z,0.00
2017-09-29T02:27:27.306Z,0.00
2017-09-29T02:28:27.282Z,0.00
2017-09-29T02:29:27.244Z,0.00
2017-09-29T02:30:27.229Z,0.00
2017-09-29T02:31:27.187Z,0.00
2017-09-29T02:32:27.164Z,0.00
2017-09-29T02:33:27.133Z,0.00
2017-09-29T02:34:27.100Z,0.00
2017-09-29T02:35:27.068Z,0.00
2017-09-29T02:36:27.042Z,0.00
2017-09-29T02:37:27.006Z,0.00
2017-09-29T02:38:26.981Z,0.00
2017-09-29T02:39:26.951Z,0.00
2017-09-29T02:40:26.922Z,0.00
2017-09-29T02:41:26.885Z,0.00
2017-09-29T02:42:26.850Z,0.00
2017-09-29T02:43:26.829Z,0.00
2017-09-29T02:44:26.795Z,0.00
2017-09-29T02:45:26.763Z,0.00
2017-09-29T02:46:26.731Z,0.00
2017-09-29T02:47:26.707Z,0.00
2017-09-29T02:48:26.703Z,0.00
2017-09-29T02:49:26.735Z,0.00
2017-09-29T02:50:26.635Z,0.00
2017-09-29T02:51:26.616Z,0.00
2017-09-29T02:52:26.560Z,0.00
2017-09-29T02:53:26.534Z,0.00
2017-09-29T02:54:26.500Z,0.00
2017-09-29T02:55:26.477Z,0.00
2017-09-29T02:56:26.462Z,0.00
2017-09-29T02:57:26.403Z,0.00
2017-09-29T02:58:26.366Z,0.00
2017-09-29T02:59:26.342Z,0.00
2017-09-29T03:00:26.312Z,0.00
2017-09-29T03:01:26.278Z,0.00
2017-09-29T03:02:26.251Z,0.00
2017-09-29T03:03:26.216Z,0.00
2017-09-29T03:04:26.187Z,0.00
2017-09-29T03:05:26.161Z,0.00
2017-09-29T03:06:26.129Z,0.00
2017-09-29T03:07:26.095Z,0.00
2017-09-29T03:08:26.067Z,0.00
2017-09-29T03:09:26.040Z,0.00
2017-09-29T03:10:26.015Z,0.00
2017-09-29T03:11:25.975Z,0.00
2017-09-29T03:12:25.947Z,0.00
2017-09-29T03:13:25.936Z,0.00
2017-09-29T03:14:25.901Z,0.00
2017-09-29T03:15:25.859Z,0.00
2017-09-29T03:16:25.838Z,0.00
2017-09-29T03:17:25.843Z,0.00
2017-09-29T03:18:25.796Z,0.00
2017-09-29T03:19:25.902Z,0.00
2017-09-29T03:20:25.902Z,0.00
2017-09-29T03:21:25.810Z,0.00
2017-09-29T03:22:25.680Z,0.00
2017-09-29T03:23:25.645Z,0.00
2017-09-29T03:24:25.817Z,0.00
2017-09-29T03:25:25.617Z,0.00
2017-09-29T03:26:25.591Z,0.00
2017-09-29T03:27:25.613Z,0.00
2017-09-29T03:28:25.547Z,0.00
2017-09-29T03:29:25.534Z,0.00
2017-09-29T03:30:25.507Z,0.00
2017-09-29T03:31:25.451Z,0.00
2017-09-29T03:32:25.475Z,0.00
2017-09-29T03:33:25.396Z,0.00
2017-09-29T03:34:25.327Z,0.00
2017-09-29T03:35:25.306Z,0.00
2017-09-29T03:36:25.269Z,0.00
2017-09-29T03:37:25.240Z,0.00
2017-09-29T03:38:25.214Z,0.00
2017-09-29T03:39:25.179Z,0.00
2017-09-29T03:40:25.164Z,0.00
2017-09-29T03:41:25.124Z,0.00
2017-09-29T03:42:25.105Z,0.00
2017-09-29T03:43:25.064Z,0.00
2017-09-29T03:44:25.040Z,0.00
2017-09-29T03:45:25.015Z,0.00
2017-09-29T03:46:25.008Z,0.00
2017-09-29T03:47:24.965Z,0.00
2017-09-29T03:48:24.928Z,0.00
2017-09-29T03:49:24.899Z,0.00
2017-09-29T03:50:24.873Z,0.00
2017-09-29T03:51:24.851Z,0.00
2017-09-29T03:52:24.814Z,0.00
2017-09-29T03:53:24.808Z,0.00
2017-09-29T03:54:24.764Z,0.00
2017-09-29T03:55:24.748Z,0.00
2017-09-29T03:56:24.711Z,0.00
2017-09-29T03:57:24.691Z,0.00
2017-09-29T03:58:24.657Z,0.00
2017-09-29T03:59:24.632Z,0.00
2017-09-29T04:00:24.609Z,0.00
2017-09-29T04:01:24.594Z,0.00
2017-09-29T04:02:24.646Z,0.00
2017-09-29T04:03:24.529Z,0.00
2017-09-29T04:04:24.506Z,0.00
2017-09-29T04:05:24.460Z,0.00
2017-09-29T04:06:24.445Z,0.00
2017-09-29T04:07:24.410Z,0.00
2017-09-29T04:08:24.398Z,0.00
2017-09-29T04:09:24.359Z,0.00
2017-09-29T04:10:24.331Z,0.00
2017-09-29T04:11:24.300Z,0.00
2017-09-29T04:12:24.294Z,0.00
2017-09-29T04:13:24.243Z,0.00
2017-09-29T04:14:24.234Z,0.00
2017-09-29T04:15:24.195Z,0.00
2017-09-29T04:16:24.171Z,0.00
2017-09-29T04:17:24.134Z,0.00
2017-09-29T04:18:24.109Z,0.00
2017-09-29T04:19:24.088Z,0.00
2017-09-29T04:20:24.055Z,0.00
2017-09-29T04:21:24.029Z,0.00
2017-09-29T04:22:24.011Z,0.00
2017-09-29T04:23:23.983Z,0.00
2017-09-29T04:24:23.948Z,0.00
2017-09-29T04:25:23.920Z,0.00
2017-09-29T04:26:23.902Z,0.00
2017-09-29T04:27:23.865Z,0.00
2017-09-29T04:28:23.843Z,0.00
2017-09-29T04:29:23.817Z,0.00
2017-09-29T04:30:23.786Z,0.00
2017-09-29T04:31:23.764Z,0.00
2017-09-29T04:32:23.732Z,0.00
2017-09-29T04:33:23.784Z,0.00
2017-09-29T04:34:23.682Z,0.00
2017-09-29T04:35:23.663Z,0.00
2017-09-29T04:36:23.632Z,0.00
2017-09-29T04:37:23.600Z,0.00
2017-09-29T04:38:23.588Z,0.00
2017-09-29T04:39:23.528Z,0.00
2017-09-29T04:40:23.513Z,0.00
2017-09-29T04:41:23.490Z,0.00
2017-09-29T04:42:23.474Z,0.00
2017-09-29T04:43:23.434Z,0.00
2017-09-29T04:44:23.428Z,0.00
2017-09-29T04:45:23.375Z,0.00
2017-09-29T04:46:23.349Z,0.00
2017-09-29T04:47:23.320Z,0.00
2017-09-29T04:48:23.294Z,0.00
2017-09-29T04:49:23.260Z,0.00
2017-09-29T04:50:23.243Z,0.00
2017-09-29T04:51:23.215Z,0.00
2017-09-29T04:52:23.208Z,0.00
2017-09-29T04:53:23.179Z,0.00
2017-09-29T04:54:23.128Z,0.00
2017-09-29T04:55:23.090Z,0.00
2017-09-29T04:56:23.070Z,0.00
2017-09-29T04:57:23.048Z,0.00
2017-09-29T04:58:23.016Z,0.00
2017-09-29T04:59:22.993Z,0.00
2017-09-29T05:00:22.960Z,0.00
2017-09-29T05:01:22.933Z,0.00
2017-09-29T05:02:22.905Z,0.00
2017-09-29T05:03:22.877Z,0.00
2017-09-29T05:04:22.847Z,0.00
2017-09-29T05:05:22.824Z,0.00
2017-09-29T05:06:22.792Z,0.00
2017-09-29T05:07:22.769Z,5.63
2017-09-29T05:08:22.737Z,5.63
2017-09-29T05:09:22.711Z,5.63
2017-09-29T05:10:22.700Z,5.63
2017-09-29T05:11:23.221Z,5.63
2017-09-29T05:12:22.628Z,5.63
2017-09-29T05:13:22.603Z,5.63
2017-09-29T05:14:22.574Z,5.63
2017-09-29T05:15:22.570Z,5.63
2017-09-29T05:16:22.537Z,11.25
2017-09-29T05:17:22.595Z,11.25
2017-09-29T05:18:22.481Z,11.25
2017-09-29T05:19:22.435Z,11.25
2017-09-29T05:20:22.423Z,16.88
2017-09-29T05:21:22.380Z,16.88
2017-09-29T05:22:22.350Z,16.88
2017-09-29T05:23:22.333Z,22.50
2017-09-29T05:24:22.305Z,22.50
2017-09-29T05:25:22.272Z,22.50
2017-09-29T05:26:22.268Z,28.13
2017-09-29T05:27:22.247Z,28.13
2017-09-29T05:28:22.182Z,28.13
2017-09-29T05:29:22.180Z,28.13
2017-09-29T05:30:22.131Z,33.75
2017-09-29T05:31:22.132Z,33.75
2017-09-29T05:32:22.070Z,39.38
2017-09-29T05:33:22.051Z,39.38
2017-09-29T05:34:22.030Z,39.38
2017-09-29T05:35:21.985Z,39.38
2017-09-29T05:36:21.984Z,39.38
2017-09-29T05:37:21.957Z,45.00
2017-09-29T05:38:21.941Z,45.00
2017-09-29T05:39:21.925Z,45.00
2017-09-29T05:40:21.871Z,45.00
2017-09-29T05:41:21.851Z,45.00
2017-09-29T05:42:21.792Z,45.00
2017-09-29T05:43:21.785Z,45.00
2017-09-29T05:44:21.771Z,50.63
2017-09-29T05:45:21.741Z,50.63
2017-09-29T05:46:21.693Z,50.63
2017-09-29T05:47:21.658Z,45.00
2017-09-29T05:48:21.624Z,39.38
2017-09-29T05:49:21.593Z,39.38
2017-09-29T05:50:21.567Z,33.75
2017-09-29T05:51:21.540Z,33.75
2017-09-29T05:52:21.509Z,33.75
2017-09-29T05:53:21.478Z,33.75
2017-09-29T05:54:21.452Z,33.75
2017-09-29T05:55:21.430Z,33.75
2017-09-29T05:56:21.406Z,33.75
2017-09-29T05:57:21.366Z,39.38
2017-09-29T05:58:21.338Z,39.38
2017-09-29T05:59:21.306Z,39.38
2017-09-29T06:00:21.280Z,39.38
2017-09-29T06:01:21.256Z,39.38
2017-09-29T06:02:21.225Z,45.00
2017-09-29T06:03:21.201Z,45.00
2017-09-29T06:04:21.171Z,45.00
2017-09-29T06:05:21.142Z,45.00
2017-09-29T06:06:21.131Z,45.00
2017-09-29T06:07:21.106Z,45.00
2017-09-29T06:08:21.059Z,45.00
2017-09-29T06:09:21.031Z,45.00
2017-09-29T06:10:21.035Z,45.00
2017-09-29T06:11:20.972Z,50.63
2017-09-29T06:12:20.939Z,50.63
2017-09-29T06:13:20.914Z,50.63
2017-09-29T06:14:20.883Z,56.25
2017-09-29T06:15:20.856Z,56.25
2017-09-29T06:16:20.826Z,61.88
2017-09-29T06:17:20.795Z,73.13
2017-09-29T06:18:20.768Z,84.38
2017-09-29T06:19:20.741Z,101.25
2017-09-29T06:20:20.722Z,112.50
2017-09-29T06:21:20.685Z,123.75
2017-09-29T06:22:20.652Z,129.38
2017-09-29T06:23:20.628Z,140.63
2017-09-29T06:24:20.605Z,140.63
2017-09-29T06:25:20.572Z,146.25
2017-09-29T06:26:20.546Z,140.63
2017-09-29T06:27:20.511Z,135.00
2017-09-29T06:28:20.494Z,123.75
2017-09-29T06:29:20.456Z,118.13
2017-09-29T06:30:20.438Z,112.50
2017-09-29T06:31:20.404Z,106.88
2017-09-29T06:32:20.377Z,106.88
2017-09-29T06:33:20.509Z,101.25
2017-09-29T06:34:20.333Z,101.25
2017-09-29T06:35:20.289Z,101.25
2017-09-29T06:36:20.264Z,101.25
2017-09-29T06:37:20.230Z,101.25
2017-09-29T06:38:20.207Z,101.25
2017-09-29T06:39:20.171Z,101.25
2017-09-29T06:40:20.154Z,101.25
2017-09-29T06:41:20.130Z,106.88
2017-09-29T06:42:20.084Z,106.88
2017-09-29T06:43:20.080Z,106.88
2017-09-29T06:44:20.020Z,106.88
2017-09-29T06:45:20.038Z,112.50
2017-09-29T06:46:19.984Z,112.50
2017-09-29T06:47:19.976Z,112.50
2017-09-29T06:48:19.938Z,118.13
2017-09-29T06:49:19.903Z,118.13
2017-09-29T06:50:20.776Z,123.75
2017-09-29T06:51:19.849Z,123.75
2017-09-29T06:52:19.813Z,123.75
2017-09-29T06:53:19.774Z,129.38
2017-09-29T06:54:19.772Z,129.38
2017-09-29T06:55:19.723Z,135.00
2017-09-29T06:56:19.702Z,140.63
2017-09-29T06:57:19.669Z,140.63
2017-09-29T06:58:19.652Z,146.25
2017-09-29T06:59:19.617Z,151.88
2017-09-29T07:00:19.596Z,151.88
2017-09-29T07:01:19.552Z,157.50
2017-09-29T07:02:19.542Z,157.50
2017-09-29T07:03:19.506Z,157.50
2017-09-29T07:04:19.491Z,157.50
2017-09-29T07:05:19.451Z,163.13
2017-09-29T07:06:19.405Z,163.13
2017-09-29T07:07:19.380Z,163.13
2017-09-29T07:08:19.365Z,168.75
2017-09-29T07:09:19.313Z,168.75
2017-09-29T07:10:19.287Z,168.75
2017-09-29T07:11:19.255Z,174.38
2017-09-29T07:12:19.229Z,0.00
2017-09-29T07:13:19.206Z,0.00
2017-09-29T07:19:44.148Z,450.00
2017-09-29T07:20:44.032Z,0.00
2017-09-29T07:21:47.229Z,635.63
2017-09-29T07:22:45.631Z,0.00
2017-09-29T07:25:17.832Z,1006.88
2017-09-29T07:26:20.412Z,376.88
2017-09-29T07:27:18.413Z,382.50
2017-09-29T07:28:18.418Z,388.13
2017-09-29T07:29:17.825Z,393.75
2017-09-29T07:30:17.875Z,399.38
2017-09-29T07:31:17.490Z,1141.88
2017-09-29T07:32:17.228Z,1023.75
2017-09-29T08:42:58.641Z,1428.75
2017-09-29T08:43:46.334Z,1473.75
2017-09-29T08:44:45.795Z,1625.63
2017-09-29T08:45:46.214Z,1940.63
2017-09-29T08:46:46.234Z,2058.75
2017-09-29T08:47:55.207Z,2216.25
2017-09-29T08:49:40.163Z,1890.00
2017-09-29T08:50:39.513Z,2160.00
2017-09-29T08:51:40.514Z,2154.38
2017-09-29T08:52:40.005Z,1980.00
2017-09-29T08:53:39.453Z,1856.25
2017-09-29T08:54:39.918Z,1738.13
2017-09-29T08:55:39.866Z,1552.50
2017-09-29T08:56:39.849Z,1310.63
2017-09-29T08:57:39.827Z,1243.13
2017-09-29T08:58:39.139Z,1243.13
2017-09-29T08:59:39.035Z,1260.00
2017-09-29T09:00:38.855Z,1333.13
2017-09-29T09:01:38.817Z,1850.63
2017-09-29T09:02:38.700Z,2103.75
2017-09-29T09:03:38.800Z,2508.75
2017-09-29T09:04:38.700Z,2435.63
2017-09-29T09:05:38.641Z,1783.13
2017-09-29T09:06:38.596Z,1732.50
2017-09-29T09:07:38.578Z,1805.63
2017-09-29T09:08:38.532Z,2356.88
2017-09-29T09:09:38.518Z,2514.38
2017-09-29T09:10:38.428Z,2154.38
2017-09-29T09:11:38.430Z,2446.88
2017-09-29T09:12:38.422Z,2446.88
2017-09-29T09:13:38.376Z,1974.38
2017-09-29T09:14:38.346Z,2115.00
2017-09-29T09:15:38.285Z,2722.50
2017-09-29T09:16:38.274Z,3043.13
2017-09-29T09:17:38.273Z,3313.13
2017-09-29T09:18:38.247Z,3251.25
2017-09-29T09:19:38.292Z,3352.50
2017-09-29T09:20:38.197Z,3510.00
2017-09-29T09:21:38.503Z,3976.88
2017-09-29T09:22:38.126Z,3926.25
2017-09-29T09:23:38.088Z,3453.75
2017-09-29T09:24:38.095Z,3841.88
2017-09-29T09:25:38.086Z,3774.38
2017-09-29T09:26:38.034Z,3414.38
2017-09-29T09:27:38.006Z,3532.50
2017-09-29T09:28:38.011Z,3144.38
2017-09-29T09:29:37.948Z,2857.50
2017-09-29T09:30:37.990Z,3268.13
2017-09-29T09:31:37.947Z,3386.25
2017-09-29T09:32:37.965Z,2705.63
2017-09-29T09:33:37.881Z,3431.25
2017-09-29T09:34:37.906Z,3774.38
2017-09-29T09:35:37.876Z,3785.63
2017-09-29T09:36:37.797Z,3735.00
2017-09-29T09:37:37.832Z,3543.75
2017-09-29T09:38:37.791Z,3369.38
2017-09-29T09:39:39.684Z,3566.25
2017-09-29T09:40:37.721Z,3853.13
2017-09-29T09:41:37.772Z,3993.75
2017-09-29T09:42:37.698Z,4173.75
2017-09-29T09:43:37.696Z,3757.50
2017-09-29T09:44:37.620Z,3718.13
2017-09-29T09:45:37.643Z,3931.88
2017-09-29T09:46:37.738Z,4038.75
2017-09-29T09:47:37.573Z,3560.63
2017-09-29T09:48:37.576Z,2227.50
2017-09-29T09:49:37.574Z,2750.63
2017-09-29T09:50:37.537Z,3926.25
2017-09-29T09:51:37.502Z,3960.00
2017-09-29T09:52:37.525Z,3971.25
2017-09-29T09:53:38.062Z,4151.25
2017-09-29T09:54:37.604Z,3031.88
2017-09-29T09:55:37.480Z,2283.75
2017-09-29T09:56:37.416Z,1558.13
2017-09-29T09:57:37.381Z,1406.25
2017-09-29T09:58:37.378Z,1361.25
2017-09-29T09:59:37.342Z,1333.13
2017-09-29T10:00:37.343Z,1271.25
2017-09-29T10:01:37.317Z,1231.88
2017-09-29T10:02:37.337Z,1220.63
2017-09-29T10:03:37.290Z,1260.00
2017-09-29T10:04:37.302Z,2030.63
2017-09-29T10:05:37.256Z,1501.88
2017-09-29T10:06:37.255Z,1411.88
2017-09-29T10:07:37.194Z,2154.38
2017-09-29T10:08:37.164Z,2981.25
2017-09-29T10:09:37.173Z,3318.75
2017-09-29T10:10:37.153Z,3369.38
2017-09-29T10:11:37.117Z,3616.88
2017-09-29T10:12:37.078Z,2705.63
2017-09-29T10:13:37.065Z,3616.88
2017-09-29T10:14:37.016Z,3988.13
2017-09-29T10:15:37.031Z,4320.00
2017-09-29T10:16:37.024Z,3830.63
2017-09-29T10:17:36.960Z,2137.50
2017-09-29T10:18:36.949Z,1383.75
2017-09-29T10:19:36.949Z,1440.00
2017-09-29T10:20:36.876Z,1957.50
2017-09-29T10:21:36.917Z,3448.13
2017-09-29T10:22:36.834Z,4100.63
2017-09-29T10:23:36.848Z,4381.88
2017-09-29T10:24:36.814Z,4263.75
2017-09-29T10:25:36.792Z,4179.38
2017-09-29T10:26:36.781Z,3015.00
2017-09-29T10:27:36.736Z,2913.75
2017-09-29T10:28:36.722Z,2536.88
2017-09-29T10:29:36.724Z,4095.00
2017-09-29T10:30:36.682Z,3898.13
2017-09-29T10:31:36.672Z,4438.13
2017-09-29T10:32:36.616Z,4291.88
2017-09-29T10:33:36.634Z,4038.75
2017-09-29T10:34:36.616Z,3667.50
2017-09-29T10:35:36.555Z,3645.00
2017-09-29T10:36:36.639Z,3223.13
2017-09-29T10:37:36.568Z,4134.38
2017-09-29T10:38:36.561Z,4269.38
2017-09-29T10:39:36.507Z,4618.13
2017-09-29T10:40:36.487Z,4044.38
2017-09-29T10:41:36.482Z,4590.00
2017-09-29T10:42:36.480Z,4871.25
2017-09-29T10:43:36.441Z,4691.25
2017-09-29T10:44:36.437Z,4865.63
2017-09-29T10:45:36.430Z,5236.88
2017-09-29T10:46:36.361Z,3183.75
2017-09-29T10:47:36.400Z,4944.38
2017-09-29T10:48:36.363Z,2835.00
2017-09-29T10:49:36.331Z,2030.63
2017-09-29T10:50:36.353Z,1951.88
2017-09-29T10:51:36.270Z,1878.75
2017-09-29T10:52:36.240Z,3268.13
2017-09-29T10:53:36.261Z,1957.50
2017-09-29T10:54:36.229Z,1816.88
2017-09-29T10:55:36.204Z,2806.88
2017-09-29T10:56:36.194Z,1631.25
2017-09-29T10:57:36.222Z,1591.88
2017-09-29T10:58:36.174Z,1743.75
2017-09-29T10:59:36.109Z,2829.38
2017-09-29T11:00:36.219Z,2266.88
2017-09-29T11:01:36.107Z,3650.63
2017-09-29T11:02:36.070Z,3363.75
2017-09-29T11:03:36.056Z,3656.25
2017-09-29T11:04:36.025Z,3616.88
2017-09-29T11:05:36.046Z,3375.00
2017-09-29T11:06:35.955Z,2722.50
2017-09-29T11:07:35.961Z,3189.38
2017-09-29T11:08:35.939Z,3639.38
2017-09-29T11:09:35.902Z,4016.25
2017-09-29T11:10:35.975Z,4308.75
2017-09-29T11:11:35.856Z,3988.13
2017-09-29T11:12:35.900Z,4741.88
2017-09-29T11:13:35.927Z,5017.50
2017-09-29T11:14:35.806Z,4966.88
2017-09-29T11:15:35.778Z,4258.13
2017-09-29T11:16:35.798Z,5068.13
2017-09-29T11:17:35.745Z,5394.38
2017-09-29T11:18:35.753Z,5310.00
2017-09-29T11:19:35.768Z,5163.75
2017-09-29T11:20:35.785Z,4280.63
2017-09-29T11:21:35.698Z,4111.88
2017-09-29T11:22:35.649Z,2846.25
2017-09-29T11:23:35.673Z,2857.50
2017-09-29T11:24:35.713Z,2368.13
2017-09-29T11:25:35.580Z,2233.13
2017-09-29T11:26:35.567Z,2210.63
2017-09-29T11:27:35.539Z,1878.75
2017-09-29T11:28:35.590Z,1946.25
2017-09-29T11:29:35.533Z,2137.50
2017-09-29T11:30:35.546Z,2812.50
2017-09-29T11:31:35.495Z,3335.63
2017-09-29T11:32:35.515Z,3369.38
2017-09-29T11:33:35.432Z,4190.63
2017-09-29T11:34:35.426Z,3943.13
2017-09-29T11:35:35.428Z,3600.00
2017-09-29T11:36:35.412Z,4601.25
2017-09-29T11:37:35.358Z,4910.63
2017-09-29T11:38:35.357Z,4410.00
2017-09-29T11:39:35.358Z,4995.00
2017-09-29T11:40:35.368Z,3543.75
2017-09-29T11:41:35.312Z,3330.00
2017-09-29T11:42:35.318Z,2649.38
2017-09-29T11:43:35.255Z,2250.00
2017-09-29T11:44:35.279Z,2323.13
2017-09-29T11:45:35.239Z,2480.63
2017-09-29T11:46:35.218Z,2790.00
2017-09-29T11:47:35.215Z,4241.25
2017-09-29T11:48:35.152Z,4460.63
2017-09-29T11:49:35.190Z,3234.38
2017-09-29T11:50:35.133Z,3178.13
2017-09-29T11:51:35.095Z,3127.50
2017-09-29T11:52:35.040Z,4033.13
2017-09-29T11:53:35.082Z,3718.13
2017-09-29T11:54:35.020Z,2671.88
2017-09-29T11:55:35.074Z,2660.63
2017-09-29T11:56:35.004Z,3105.00
2017-09-29T11:57:34.945Z,4106.25
2017-09-29T11:58:34.918Z,3065.63
2017-09-29T11:59:34.991Z,2823.75
2017-09-29T12:00:36.718Z,3948.75
2017-09-29T12:01:34.920Z,3931.88
2017-09-29T12:02:34.884Z,4280.63
2017-09-29T12:03:34.808Z,4280.63
2017-09-29T12:04:34.791Z,4455.00
2017-09-29T12:05:34.811Z,4606.88
2017-09-29T12:06:34.779Z,2289.38
2017-09-29T12:07:34.764Z,2514.38
2017-09-29T12:08:34.740Z,3217.50
2017-09-29T12:09:34.771Z,3729.38
2017-09-29T12:10:34.715Z,4106.25
2017-09-29T12:11:34.656Z,4567.50
2017-09-29T12:12:34.633Z,3420.00
2017-09-29T12:13:34.657Z,2109.38
2017-09-29T12:14:34.625Z,1816.88
2017-09-29T12:15:34.623Z,1726.88
2017-09-29T12:16:34.596Z,1963.13
2017-09-29T12:17:34.550Z,3403.13
2017-09-29T12:18:34.513Z,3611.25
2017-09-29T12:19:34.512Z,3881.25
2017-09-29T12:20:34.517Z,3971.25
2017-09-29T12:21:34.487Z,3622.50
2017-09-29T12:22:34.421Z,3976.88
2017-09-29T12:23:34.427Z,4145.63
2017-09-29T12:24:34.435Z,3864.38
2017-09-29T12:25:34.462Z,4050.00
2017-09-29T12:26:34.351Z,3780.00
2017-09-29T12:27:34.339Z,2941.88
2017-09-29T12:28:34.370Z,2716.88
2017-09-29T12:29:34.350Z,2919.38
2017-09-29T12:30:34.319Z,2666.25
2017-09-29T12:31:34.272Z,1546.88
2017-09-29T12:32:34.287Z,1440.00
2017-09-29T12:33:34.204Z,1423.13
2017-09-29T12:34:34.207Z,1440.00
2017-09-29T12:35:34.193Z,2458.13
2017-09-29T12:36:34.185Z,2880.00
2017-09-29T12:37:34.171Z,2176.88
2017-09-29T12:38:34.142Z,2885.63
2017-09-29T12:39:34.096Z,3571.88
2017-09-29T12:40:34.116Z,3037.50
2017-09-29T12:41:34.114Z,1980.00
2017-09-29T12:42:34.045Z,4252.50
2017-09-29T12:43:34.059Z,1800.00
2017-09-29T12:44:33.987Z,1665.00
2017-09-29T12:45:33.980Z,2711.25
2017-09-29T12:46:33.942Z,1777.50
2017-09-29T12:47:33.935Z,1597.50
2017-09-29T12:48:33.954Z,1693.13
2017-09-29T12:49:33.881Z,1546.88
2017-09-29T12:50:33.889Z,1575.00
2017-09-29T12:51:33.866Z,1681.88
2017-09-29T12:52:33.862Z,1625.63
2017-09-29T12:53:33.809Z,2086.88
2017-09-29T12:54:33.798Z,2081.25
2017-09-29T12:55:33.761Z,1665.00
2017-09-29T12:56:33.751Z,1732.50
2017-09-29T12:57:33.770Z,1710.00
2017-09-29T12:58:33.694Z,2587.50
2017-09-29T12:59:33.735Z,1625.63
2017-09-29T13:00:33.682Z,1783.13
2017-09-29T13:01:33.648Z,1676.25
2017-09-29T13:02:33.586Z,2446.88
2017-09-29T13:03:33.590Z,1681.88
2017-09-29T13:04:33.531Z,1760.63
2017-09-29T13:05:33.540Z,1822.50
2017-09-29T13:06:33.489Z,2261.25
2017-09-29T13:07:33.471Z,1710.00
2017-09-29T13:08:33.445Z,1586.25
2017-09-29T13:09:33.374Z,1676.25
2017-09-29T13:10:33.369Z,1535.63
2017-09-29T13:11:33.376Z,1496.25
2017-09-29T13:12:33.407Z,1530.00
2017-09-29T13:13:33.286Z,1648.13
2017-09-29T13:14:33.306Z,1614.38
2017-09-29T13:15:33.323Z,1603.13
2017-09-29T13:16:33.203Z,2171.25
2017-09-29T13:17:33.564Z,2671.88
2017-09-29T13:18:33.210Z,2441.25
2017-09-29T13:19:33.158Z,1653.75
2017-09-29T13:20:33.151Z,2092.50
2017-09-29T13:21:33.126Z,2660.63
2017-09-29T13:22:33.046Z,1783.13
2017-09-29T13:23:33.016Z,2598.75
2017-09-29T13:24:33.048Z,2216.25
2017-09-29T13:25:33.024Z,1586.25
2017-09-29T13:26:32.947Z,1760.63
2017-09-29T13:27:32.929Z,1777.50
2017-09-29T13:28:32.905Z,3301.88
2017-09-29T13:29:32.892Z,2998.13
2017-09-29T13:30:34.711Z,2373.75
2017-09-29T13:31:32.817Z,2694.38
2017-09-29T13:32:32.857Z,2289.38
2017-09-29T13:33:32.836Z,3015.00
2017-09-29T13:34:32.774Z,3268.13
2017-09-29T13:35:32.712Z,3206.25
2017-09-29T13:36:32.699Z,3133.13
2017-09-29T13:37:32.684Z,3768.75
2017-09-29T13:38:32.646Z,3768.75
2017-09-29T13:39:32.621Z,3099.38
2017-09-29T13:40:32.605Z,2970.00
2017-09-29T13:41:32.620Z,2925.00
2017-09-29T13:42:32.601Z,2728.13
2017-09-29T13:43:32.556Z,2666.25
2017-09-29T13:44:32.502Z,3172.50
2017-09-29T13:45:32.495Z,3346.88
2017-09-29T13:46:32.538Z,3110.63
2017-09-29T13:47:32.428Z,3189.38
2017-09-29T13:48:32.404Z,3465.00
2017-09-29T13:49:32.435Z,3144.38
2017-09-29T13:50:32.382Z,3003.75
2017-09-29T13:51:32.368Z,2936.25
2017-09-29T13:52:32.348Z,2829.38
2017-09-29T13:53:32.359Z,2823.75
2017-09-29T13:54:32.355Z,3037.50
2017-09-29T13:55:32.297Z,2913.75
2017-09-29T13:56:32.292Z,2655.00
2017-09-29T13:57:33.163Z,2700.00
2017-09-29T13:58:32.197Z,2919.38
2017-09-29T13:59:32.183Z,2868.75
2017-09-29T14:00:32.170Z,2435.63
2017-09-29T14:01:32.152Z,2576.25
2017-09-29T14:02:32.100Z,2559.38
2017-09-29T14:03:32.092Z,2677.50
2017-09-29T14:04:32.096Z,2761.88
2017-09-29T14:05:32.040Z,2272.50
2017-09-29T14:06:32.022Z,2227.50
2017-09-29T14:07:32.022Z,2351.25
2017-09-29T14:08:32.010Z,2300.63
2017-09-29T14:09:31.960Z,2188.13
2017-09-29T14:10:31.977Z,1884.38
2017-09-29T14:11:31.904Z,2182.50
2017-09-29T14:12:31.869Z,2205.00
2017-09-29T14:13:31.872Z,2300.63
2017-09-29T14:14:31.874Z,1980.00
2017-09-29T14:15:31.813Z,1805.63
2017-09-29T14:16:31.820Z,1918.13
2017-09-29T14:17:31.768Z,1620.00
2017-09-29T14:18:31.823Z,1704.38
2017-09-29T14:19:31.780Z,1749.38
2017-09-29T14:20:31.702Z,1766.25
2017-09-29T14:21:31.694Z,1518.75
2017-09-29T14:22:31.711Z,1479.38
2017-09-29T14:23:31.743Z,1406.25
2017-09-29T14:24:31.643Z,1361.25
2017-09-29T14:25:31.611Z,1440.00
2017-09-29T14:26:31.556Z,1496.25